createdAt,value
2018-07-05T00:00:02.651Z,14.90
2018-07-05T00:05:29.180Z,14.80
2018-07-05T00:08:16.465Z,14.70
2018-07-05T00:11:02.855Z,14.70
2018-07-05T00:13:49.443Z,14.70
2018-07-05T00:16:35.596Z,14.60
2018-07-05T00:19:22.051Z,14.60
2018-07-05T00:22:08.538Z,14.60
2018-07-05T00:24:54.934Z,14.50
2018-07-05T00:27:41.492Z,14.50
2018-07-05T00:30:27.862Z,14.50
2018-07-05T00:33:14.376Z,14.60
2018-07-05T00:36:00.968Z,14.60
2018-07-05T00:38:47.320Z,14.60
2018-07-05T00:41:33.991Z,14.60
2018-07-05T00:44:20.472Z,14.60
2018-07-05T00:47:06.947Z,14.60
2018-07-05T00:49:53.210Z,14.70
2018-07-05T00:52:39.902Z,14.80
2018-07-05T00:55:26.167Z,14.90
2018-07-05T00:58:12.467Z,15.10
2018-07-05T01:00:58.635Z,15.20
2018-07-05T01:03:44.782Z,15.40
2018-07-05T01:06:31.918Z,15.50
2018-07-05T01:11:58.774Z,15.80
2018-07-05T01:14:45.171Z,15.90
2018-07-05T01:17:31.714Z,16.10
2018-07-05T01:20:18.064Z,16.10
2018-07-05T01:23:04.337Z,16.10
2018-07-05T01:25:50.838Z,16.10
2018-07-05T01:28:37.183Z,16.20
2018-07-05T01:31:23.655Z,16.20
2018-07-05T01:34:10.107Z,16.30
2018-07-05T01:36:56.409Z,16.30
2018-07-05T01:39:42.811Z,16.30
2018-07-05T01:42:29.573Z,16.40
2018-07-05T01:45:15.739Z,16.40
2018-07-05T01:53:23.575Z,16.50
2018-07-05T01:56:10.023Z,16.50
2018-07-05T01:58:56.467Z,16.50
2018-07-05T02:04:23.091Z,16.60
2018-07-05T02:07:09.522Z,16.50
2018-07-05T02:09:55.990Z,16.60
2018-07-05T02:12:42.607Z,16.60
2018-07-05T02:15:28.748Z,16.50
2018-07-05T02:18:15.164Z,16.50
2018-07-05T02:23:41.903Z,16.60
2018-07-05T02:29:08.936Z,16.60
2018-07-05T02:31:55.312Z,16.60
2018-07-05T02:34:41.961Z,16.70
2018-07-05T02:37:34.859Z,16.70
2018-07-05T02:40:21.503Z,16.60
2018-07-05T02:43:07.905Z,16.60
2018-07-05T02:45:54.888Z,16.60
2018-07-05T02:48:41.107Z,16.70
2018-07-05T02:51:27.726Z,16.60
2018-07-05T02:54:14.335Z,16.60
2018-07-05T02:57:00.722Z,16.70
2018-07-05T02:59:47.262Z,16.60
2018-07-05T03:02:33.761Z,16.60
2018-07-05T03:08:00.390Z,16.80
2018-07-05T03:10:46.744Z,16.70
2018-07-05T03:13:33.310Z,16.80
2018-07-05T03:16:19.635Z,16.80
2018-07-05T03:19:06.057Z,16.90
2018-07-05T03:21:52.532Z,16.90
2018-07-05T03:24:38.932Z,16.90
2018-07-05T03:27:25.525Z,16.90
2018-07-05T03:30:12.243Z,17.00
2018-07-05T03:32:58.633Z,17.00
2018-07-05T03:35:45.195Z,17.10
2018-07-05T03:41:11.648Z,17.20
2018-07-05T03:46:38.707Z,17.20
2018-07-05T03:49:25.091Z,17.30
2018-07-05T03:52:11.600Z,17.40
2018-07-05T03:54:57.636Z,17.40
2018-07-05T03:57:44.243Z,17.50
2018-07-05T04:00:30.620Z,17.50
2018-07-05T04:03:17.840Z,17.60
2018-07-05T04:06:04.379Z,17.60
2018-07-05T04:08:50.459Z,17.60
2018-07-05T04:11:36.710Z,17.70
2018-07-05T04:14:23.323Z,17.70
2018-07-05T04:17:10.011Z,17.80
2018-07-05T04:22:38.354Z,18.00
2018-07-05T04:28:05.176Z,18.10
2018-07-05T04:30:51.768Z,18.10
2018-07-05T04:33:38.109Z,18.10
2018-07-05T04:36:24.522Z,18.30
2018-07-05T04:39:11.056Z,18.40
2018-07-05T04:41:57.312Z,18.50
2018-07-05T04:44:43.740Z,18.70
2018-07-05T04:47:30.122Z,18.80
2018-07-05T04:50:16.763Z,19.00
2018-07-05T04:55:43.360Z,20.50
2018-07-05T04:58:29.898Z,22.10
2018-07-05T05:01:16.404Z,22.40
2018-07-05T05:04:02.820Z,22.70
2018-07-05T05:06:49.853Z,23.50
2018-07-05T05:09:36.182Z,23.40
2018-07-05T05:12:22.660Z,23.40
2018-07-05T05:15:09.182Z,24.10
2018-07-05T05:20:36.090Z,23.40
2018-07-05T05:23:23.211Z,23.40
2018-07-05T05:26:09.623Z,23.20
2018-07-05T05:28:56.043Z,24.00
2018-07-05T05:31:42.165Z,23.90
2018-07-05T05:34:28.472Z,24.10
2018-07-05T05:37:14.888Z,24.80
2018-07-05T05:42:41.660Z,25.50
2018-07-05T05:45:28.039Z,25.30
2018-07-05T05:48:14.245Z,25.00
2018-07-05T05:51:00.483Z,24.20
2018-07-05T05:53:46.827Z,23.30
2018-07-05T05:59:13.595Z,22.30
2018-07-05T06:02:00.018Z,21.90
2018-07-05T06:04:46.352Z,21.70
2018-07-05T06:07:32.616Z,21.60
2018-07-05T06:10:19.037Z,21.40
2018-07-05T06:13:05.436Z,21.30
2018-07-05T06:15:51.642Z,21.10
2018-07-05T06:21:18.538Z,20.60
2018-07-05T06:26:45.236Z,20.40
2018-07-05T06:32:12.156Z,20.20
2018-07-05T06:34:58.490Z,20.20
2018-07-05T06:37:44.968Z,20.00
2018-07-05T06:40:31.255Z,20.00
2018-07-05T06:43:18.487Z,20.00
2018-07-05T06:46:05.361Z,20.00
2018-07-05T06:48:51.959Z,19.90
2018-07-05T06:51:38.440Z,19.90
2018-07-05T06:54:25.145Z,19.90
2018-07-05T06:57:11.651Z,19.90
2018-07-05T06:59:57.927Z,20.10
2018-07-05T07:02:44.547Z,20.20
2018-07-05T07:05:31.091Z,20.10
2018-07-05T07:10:58.079Z,20.20
2018-07-05T07:13:44.420Z,20.30
2018-07-05T07:16:30.809Z,20.30
2018-07-05T07:19:17.238Z,20.30
2018-07-05T07:22:04.491Z,20.30
2018-07-05T07:24:50.686Z,20.20
2018-07-05T07:30:17.026Z,20.00
2018-07-05T07:35:44.487Z,20.00
2018-07-05T07:38:31.198Z,20.20
2018-07-05T07:41:17.699Z,20.20
2018-07-05T07:43:51.694Z,20.30
2018-07-05T07:46:19.538Z,20.30
2018-07-05T07:48:47.313Z,20.30
2018-07-05T07:51:15.090Z,20.30
2018-07-05T07:53:42.925Z,20.30
2018-07-05T07:56:10.748Z,20.30
2018-07-05T07:58:38.536Z,20.40
2018-07-05T08:01:06.331Z,20.40
2018-07-05T08:06:02.072Z,20.70
2018-07-05T08:08:29.863Z,20.80
2018-07-05T08:10:57.649Z,20.90
2018-07-05T08:13:25.471Z,20.90
2018-07-05T08:15:54.038Z,20.90
2018-07-05T08:18:21.880Z,20.90
2018-07-05T08:23:18.114Z,20.90
2018-07-05T08:25:45.887Z,20.90
2018-07-05T08:28:14.127Z,20.90
2018-07-05T08:30:41.906Z,20.90
2018-07-05T08:33:09.948Z,20.80
2018-07-05T08:38:05.769Z,20.90
2018-07-05T08:40:33.587Z,21.10
2018-07-05T08:45:29.297Z,21.20
2018-07-05T08:47:57.107Z,21.30
2018-07-05T08:52:52.879Z,21.40
2018-07-05T08:55:20.907Z,21.30
2018-07-05T08:57:48.820Z,21.20
2018-07-05T09:00:16.668Z,21.00
2018-07-05T09:02:44.553Z,21.00
2018-07-05T09:05:12.368Z,21.10
2018-07-05T09:07:40.178Z,21.00
2018-07-05T09:10:07.960Z,21.00
2018-07-05T09:12:35.754Z,21.00
2018-07-05T09:15:03.575Z,21.00
2018-07-05T09:17:31.444Z,20.90
2018-07-05T09:22:28.097Z,20.80
2018-07-05T09:27:23.852Z,20.80
2018-07-05T09:34:47.970Z,21.10
2018-07-05T09:37:15.830Z,21.20
2018-07-05T09:39:43.679Z,21.10
2018-07-05T09:42:11.498Z,21.10
2018-07-05T09:44:39.296Z,21.10
2018-07-05T09:47:07.180Z,21.10
2018-07-05T09:49:34.907Z,21.10
2018-07-05T09:52:03.584Z,21.00
2018-07-05T09:54:31.387Z,21.00
2018-07-05T09:56:59.183Z,21.00
2018-07-05T09:59:27.012Z,21.20
2018-07-05T10:01:54.869Z,21.40
2018-07-05T10:04:22.642Z,21.40
2018-07-05T10:06:50.533Z,21.50
2018-07-05T10:09:18.407Z,21.40
2018-07-05T10:11:46.202Z,21.50
2018-07-05T10:14:13.985Z,21.30
2018-07-05T10:16:41.800Z,21.30
2018-07-05T10:19:09.568Z,21.30
2018-07-05T10:21:37.371Z,21.20
2018-07-05T10:24:05.136Z,21.20
2018-07-05T10:26:32.922Z,21.20
2018-07-05T10:29:12.997Z,21.10
2018-07-05T10:31:59.227Z,20.90
2018-07-05T10:37:02.226Z,20.60
2018-07-05T10:39:30.083Z,20.40
2018-07-05T10:42:10.318Z,20.40
2018-07-05T10:44:57.287Z,20.60
2018-07-05T10:50:23.788Z,20.90
2018-07-05T10:53:11.536Z,21.00
2018-07-05T10:55:58.457Z,21.10
2018-07-05T10:58:44.775Z,21.10
2018-07-05T11:01:31.148Z,21.10
2018-07-05T11:04:17.377Z,21.20
2018-07-05T11:07:03.975Z,21.40
2018-07-05T11:09:50.572Z,21.20
2018-07-05T11:12:37.192Z,21.30
2018-07-05T11:15:23.651Z,21.40
2018-07-05T11:18:10.362Z,21.30
2018-07-05T11:23:37.298Z,21.30
2018-07-05T11:26:24.561Z,21.30
2018-07-05T11:29:10.719Z,21.10
2018-07-05T11:31:57.430Z,21.00
2018-07-05T11:34:44.020Z,20.90
2018-07-05T11:37:30.515Z,21.10
2018-07-05T11:40:16.848Z,21.10
2018-07-05T11:43:04.016Z,20.90
2018-07-05T11:45:50.964Z,20.60
2018-07-05T11:48:37.551Z,20.60
2018-07-05T11:51:24.511Z,20.60
2018-07-05T11:54:10.808Z,20.70
2018-07-05T11:59:37.391Z,21.20
2018-07-05T12:02:23.829Z,21.40
2018-07-05T12:05:10.302Z,21.70
2018-07-05T12:07:56.721Z,21.80
2018-07-05T12:10:43.063Z,21.80
2018-07-05T12:13:29.988Z,21.60
2018-07-05T12:16:16.763Z,21.40
2018-07-05T12:19:03.390Z,21.20
2018-07-05T12:21:49.852Z,21.30
2018-07-05T12:24:36.544Z,21.20
2018-07-05T12:27:23.113Z,20.90
2018-07-05T12:30:09.687Z,20.90
2018-07-05T12:32:55.948Z,20.90
2018-07-05T12:35:42.279Z,20.90
2018-07-05T12:38:28.490Z,20.70
2018-07-05T12:41:15.295Z,20.70
2018-07-05T12:44:01.718Z,20.50
2018-07-05T12:46:48.115Z,20.60
2018-07-05T12:49:34.539Z,20.50
2018-07-05T12:52:22.102Z,20.30
2018-07-05T12:55:08.347Z,20.40
2018-07-05T12:57:54.679Z,20.60
2018-07-05T13:03:21.472Z,20.80
2018-07-05T13:08:48.096Z,21.40
2018-07-05T13:11:34.632Z,21.60
2018-07-05T13:17:01.783Z,21.80
2018-07-05T13:19:48.395Z,21.70
2018-07-05T13:22:34.738Z,21.70
2018-07-05T13:25:21.071Z,21.50
2018-07-05T13:33:28.080Z,22.20
2018-07-05T13:36:14.515Z,22.40
2018-07-05T13:39:01.016Z,22.60
2018-07-05T13:41:47.230Z,22.50
2018-07-05T13:44:33.355Z,22.60
2018-07-05T13:47:19.505Z,22.70
2018-07-05T13:50:05.977Z,22.50
2018-07-05T13:52:52.363Z,22.60
2018-07-05T13:55:38.643Z,22.70
2018-07-05T13:58:25.156Z,22.80
2018-07-05T14:03:51.967Z,22.80
2018-07-05T14:06:39.463Z,22.80
2018-07-05T14:09:25.949Z,22.80
2018-07-05T14:12:12.410Z,22.90
2018-07-05T14:14:58.720Z,22.90
2018-07-05T14:17:45.092Z,22.70
2018-07-05T14:23:11.963Z,22.80
2018-07-05T14:25:58.479Z,22.90
2018-07-05T14:28:45.036Z,23.10
2018-07-05T14:31:31.495Z,22.80
2018-07-05T14:34:17.757Z,22.70
2018-07-05T14:37:04.344Z,22.60
2018-07-05T14:39:50.802Z,22.50
2018-07-05T14:47:58.285Z,22.30
2018-07-05T14:53:25.375Z,22.50
2018-07-05T14:56:11.820Z,22.60
2018-07-05T14:58:58.331Z,22.60
2018-07-05T15:01:44.618Z,22.60
2018-07-05T15:04:31.254Z,22.50
2018-07-05T15:07:17.707Z,22.40
2018-07-05T15:10:04.110Z,22.50
2018-07-05T15:15:30.535Z,22.50
2018-07-05T15:20:57.475Z,22.60
2018-07-05T15:23:44.056Z,22.50
2018-07-05T15:26:30.390Z,22.30
2018-07-05T15:34:38.369Z,22.20
2018-07-05T15:37:24.868Z,22.20
2018-07-05T15:40:11.796Z,22.10
2018-07-05T15:42:58.539Z,22.20
2018-07-05T15:45:44.867Z,22.60
2018-07-05T15:48:31.419Z,22.20
2018-07-05T15:51:18.014Z,21.90
2018-07-05T15:54:04.560Z,21.90
2018-07-05T15:56:51.108Z,22.00
2018-07-05T15:59:37.208Z,22.00
2018-07-05T16:02:23.595Z,21.80
2018-07-05T16:05:09.929Z,21.80
2018-07-05T16:07:56.486Z,21.70
2018-07-05T16:13:23.165Z,21.70
2018-07-05T16:16:09.536Z,21.60
2018-07-05T16:18:56.082Z,21.60
2018-07-05T16:21:42.572Z,21.60
2018-07-05T16:24:29.028Z,21.40
2018-07-05T16:27:15.312Z,21.20
2018-07-05T16:30:01.875Z,21.10
2018-07-05T16:32:48.605Z,21.10
2018-07-05T16:40:55.596Z,20.90
2018-07-05T16:46:22.252Z,20.50
2018-07-05T16:49:08.569Z,20.30
2018-07-05T16:51:55.040Z,20.30
2018-07-05T16:54:41.147Z,20.10
2018-07-05T17:00:07.979Z,19.90
2018-07-05T17:02:54.407Z,19.70
2018-07-05T17:05:40.930Z,19.60
2018-07-05T17:08:27.022Z,19.70
2018-07-05T17:11:13.583Z,19.60
2018-07-05T17:14:00.070Z,19.60
2018-07-05T17:19:27.716Z,19.50
2018-07-05T17:22:14.119Z,19.40
2018-07-05T17:25:00.443Z,19.50
2018-07-05T17:27:46.737Z,19.40
2018-07-05T17:30:33.210Z,19.40
2018-07-05T17:33:19.716Z,19.30
2018-07-05T17:36:06.181Z,19.10
2018-07-05T17:38:52.858Z,19.10
2018-07-05T17:41:38.976Z,18.90
2018-07-05T17:44:25.555Z,18.90
2018-07-05T17:47:12.109Z,18.80
2018-07-05T17:49:58.551Z,18.70
2018-07-05T17:52:45.487Z,18.70
2018-07-05T17:55:31.830Z,18.50
2018-07-05T17:58:18.377Z,18.50
2018-07-05T18:01:04.946Z,18.50
2018-07-05T18:03:51.575Z,18.50
2018-07-05T18:06:38.134Z,18.60
2018-07-05T18:12:05.158Z,18.80
2018-07-05T18:14:51.692Z,18.80
2018-07-05T18:17:37.981Z,18.70
2018-07-05T18:20:24.532Z,18.80
2018-07-05T18:23:11.043Z,18.80
2018-07-05T18:25:57.466Z,18.70
2018-07-05T18:28:44.053Z,18.60
2018-07-05T18:31:30.431Z,18.60
2018-07-05T18:34:16.793Z,18.60
2018-07-05T18:37:03.334Z,18.60
2018-07-05T18:39:49.589Z,18.60
2018-07-05T18:42:35.859Z,18.60
2018-07-05T18:50:42.819Z,18.40
2018-07-05T18:53:29.266Z,18.30
2018-07-05T18:56:15.905Z,18.20
2018-07-05T18:59:04.212Z,18.00
2018-07-05T19:01:50.577Z,17.90
2018-07-05T19:04:37.124Z,17.80
2018-07-05T19:07:23.811Z,17.70
2018-07-05T19:10:10.688Z,17.70
2018-07-05T19:12:57.322Z,17.60
2018-07-05T19:15:45.180Z,17.60
2018-07-05T19:18:31.536Z,17.70
2018-07-05T19:21:18.202Z,17.70
2018-07-05T19:24:04.512Z,17.70
2018-07-05T19:26:50.976Z,17.70
2018-07-05T19:29:38.850Z,17.70
2018-07-05T19:32:25.444Z,17.70
2018-07-05T19:35:12.542Z,17.60
2018-07-05T19:37:58.971Z,17.50
2018-07-05T19:40:45.420Z,17.40
2018-07-05T19:46:12.067Z,17.40
2018-07-05T19:48:58.636Z,17.40
2018-07-05T19:51:45.378Z,17.30
2018-07-05T19:54:31.680Z,17.30
2018-07-05T19:57:18.935Z,17.40
2018-07-05T20:00:05.534Z,17.40
2018-07-05T20:02:52.464Z,17.40
2018-07-05T20:05:38.965Z,17.50
2018-07-05T20:08:25.993Z,17.50
2018-07-05T20:11:12.412Z,17.50
2018-07-05T20:13:59.091Z,17.50
2018-07-05T20:16:45.764Z,17.50
2018-07-05T20:19:32.300Z,17.60
2018-07-05T20:22:19.426Z,17.50
2018-07-05T20:25:05.995Z,17.40
2018-07-05T20:27:52.343Z,17.30
2018-07-05T20:30:38.877Z,17.40
2018-07-05T20:33:26.150Z,17.40
2018-07-05T20:36:12.449Z,17.40
2018-07-05T20:41:39.120Z,17.40
2018-07-05T20:44:25.368Z,17.40
2018-07-05T20:49:52.304Z,17.60
2018-07-05T20:52:38.693Z,17.50
2018-07-05T20:55:24.939Z,17.50
2018-07-05T20:58:11.496Z,17.50
2018-07-05T21:00:57.796Z,17.40
2018-07-05T21:03:44.183Z,17.40
2018-07-05T21:06:30.563Z,17.40
2018-07-05T21:09:17.256Z,17.40
2018-07-05T21:12:03.788Z,17.50
2018-07-05T21:14:50.198Z,17.40
2018-07-05T21:17:36.949Z,17.40
2018-07-05T21:20:23.342Z,17.40
2018-07-05T21:23:09.864Z,17.40
2018-07-05T21:25:56.381Z,17.40
2018-07-05T21:31:23.159Z,17.40
2018-07-05T21:34:09.528Z,17.50
2018-07-05T21:36:55.721Z,17.40
2018-07-05T21:39:41.918Z,17.40
2018-07-05T21:42:28.455Z,17.40
2018-07-05T21:45:15.099Z,17.50
2018-07-05T21:48:01.589Z,17.40
2018-07-05T21:50:47.864Z,17.40
2018-07-05T21:53:34.048Z,17.40
2018-07-05T21:56:20.816Z,17.40
2018-07-05T21:59:07.345Z,17.30
2018-07-05T22:01:53.724Z,17.30
2018-07-05T22:07:20.304Z,17.30
2018-07-05T22:10:06.583Z,17.20
2018-07-05T22:12:52.799Z,17.20
2018-07-05T22:15:39.167Z,17.20
2018-07-05T22:18:30.931Z,17.20
2018-07-05T22:21:19.303Z,17.20
2018-07-05T22:24:11.142Z,17.30
2018-07-05T22:26:57.430Z,17.30
2018-07-05T22:30:51.979Z,17.30
2018-07-05T22:36:18.745Z,17.30
2018-07-05T22:39:05.600Z,17.30
2018-07-05T22:41:52.155Z,17.30
2018-07-05T22:44:38.605Z,17.20
2018-07-05T22:47:24.887Z,17.20
2018-07-05T22:50:11.384Z,17.30
2018-07-05T22:52:57.624Z,17.30
2018-07-05T22:55:44.199Z,17.30
2018-07-05T22:58:30.394Z,17.30
2018-07-05T23:01:16.660Z,17.40
2018-07-05T23:04:02.967Z,17.50
2018-07-05T23:06:49.559Z,17.50
2018-07-05T23:09:36.248Z,17.50
2018-07-05T23:12:22.892Z,17.50
2018-07-05T23:15:09.135Z,17.40
2018-07-05T23:17:55.551Z,17.50
2018-07-05T23:26:02.624Z,17.50
2018-07-05T23:28:48.976Z,17.50
2018-07-05T23:34:15.769Z,17.40
2018-07-05T23:37:02.060Z,17.30
2018-07-05T23:39:49.132Z,17.20
2018-07-05T23:42:35.420Z,17.30
2018-07-05T23:45:21.900Z,17.30
2018-07-05T23:48:08.283Z,17.30
2018-07-05T23:58:55.820Z,17.20
